sensor_id;sensor_type;location;lat;lon;timestamp;pressure;altitude;pressure_sealevel;temperature;humidity
10071;BME280;5074;53.720;10.014;2022-09-23T00:01:23;101617.22;;;6.67;100.00
10071;BME280;5074;53.720;10.014;2022-09-23T00:03:51;101611.03;;;6.65;100.00
10071;BME280;5074;53.720;10.014;2022-09-23T00:06:22;101605.78;;;6.57;100.00
10071;BME280;5074;53.720;10.014;2022-09-23T00:08:51;101605.69;;;6.68;100.00
10071;BME280;5074;53.720;10.014;2022-09-23T00:11:20;101600.41;;;6.67;100.00
10071;BME280;5074;53.720;10.014;2022-09-23T00:13:50;101603.94;;;6.67;100.00
10071;BME280;5074;53.720;10.014;2022-09-23T00:16:20;101601.28;;;6.69;100.00
10071;BME280;5074;53.720;10.014;2022-09-23T00:18:49;101592.41;;;6.68;100.00
10071;BME280;5074;53.720;10.014;2022-09-23T00:21:18;101581.88;;;6.53;100.00
10071;BME280;5074;53.720;10.014;2022-09-23T00:23:48;101591.59;;;6.55;100.00
10071;BME280;5074;53.720;10.014;2022-09-23T00:26:18;101581.91;;;6.48;100.00
10071;BME280;5074;53.720;10.014;2022-09-23T00:28:47;101590.72;;;6.55;100.00
10071;BME280;5074;53.720;10.014;2022-09-23T00:31:17;101592.50;;;6.53;100.00
10071;BME280;5074;53.720;10.014;2022-09-23T00:33:45;101583.69;;;6.49;100.00
10071;BME280;5074;53.720;10.014;2022-09-23T00:36:14;101585.44;;;6.52;100.00
10071;BME280;5074;53.720;10.014;2022-09-23T00:38:43;101583.72;;;6.43;100.00
10071;BME280;5074;53.720;10.014;2022-09-23T00:41:13;101585.44;;;6.46;100.00
10071;BME280;5074;53.720;10.014;2022-09-23T00:43:45;101580.19;;;6.39;100.00
10071;BME280;5074;53.720;10.014;2022-09-23T00:46:15;101574.88;;;6.36;100.00
10071;BME280;5074;53.720;10.014;2022-09-23T00:48:44;101581.06;;;6.40;100.00
10071;BME280;5074;53.720;10.014;2022-09-23T00:51:17;101573.13;;;6.31;100.00
10071;BME280;5074;53.720;10.014;2022-09-23T00:53:47;101573.97;;;6.42;100.00
10071;BME280;5074;53.720;10.014;2022-09-23T00:56:20;101573.13;;;6.40;100.00
10071;BME280;5074;53.720;10.014;2022-09-23T00:58:49;101566.06;;;6.31;100.00
10071;BME280;5074;53.720;10.014;2022-09-23T01:01:18;101567.78;;;6.38;100.00
10071;BME280;5074;53.720;10.014;2022-09-23T01:03:47;101565.13;;;6.38;100.00
10071;BME280;5074;53.720;10.014;2022-09-23T01:06:16;101572.19;;;6.41;100.00
10071;BME280;5074;53.720;10.014;2022-09-23T01:08:45;101555.44;;;6.34;100.00
10071;BME280;5074;53.720;10.014;2022-09-23T01:11:35;101556.31;;;6.33;100.00
10071;BME280;5074;53.720;10.014;2022-09-23T01:14:22;101558.97;;;6.33;100.00
10071;BME280;5074;53.720;10.014;2022-09-23T01:17:03;101543.91;;;6.34;100.00
10071;BME280;5074;53.720;10.014;2022-09-23T01:19:45;101543.94;;;6.31;100.00
10071;BME280;5074;53.720;10.014;2022-09-23T01:22:30;101545.66;;;6.38;100.00
10071;BME280;5074;53.720;10.014;2022-09-23T01:25:20;101535.06;;;6.35;100.00
10071;BME280;5074;53.720;10.014;2022-09-23T01:28:06;101537.69;;;6.38;100.00
10071;BME280;5074;53.720;10.014;2022-09-23T01:30:45;101537.72;;;6.35;100.00
10071;BME280;5074;53.720;10.014;2022-09-23T01:33:20;101543.03;;;6.33;100.00
10071;BME280;5074;53.720;10.014;2022-09-23T01:36:03;101538.63;;;6.29;100.00
10071;BME280;5074;53.720;10.014;2022-09-23T01:38:39;101530.66;;;6.29;100.00
10071;BME280;5074;53.720;10.014;2022-09-23T01:41:14;101529.75;;;6.33;100.00
10071;BME280;5074;53.720;10.014;2022-09-23T01:43:48;101526.19;;;6.39;100.00
10071;BME280;5074;53.720;10.014;2022-09-23T01:46:26;101519.97;;;6.45;100.00
10071;BME280;5074;53.720;10.014;2022-09-23T01:49:01;101523.56;;;6.36;100.00
10071;BME280;5074;53.720;10.014;2022-09-23T01:51:37;101516.41;;;6.42;100.00
10071;BME280;5074;53.720;10.014;2022-09-23T01:54:09;101519.97;;;6.45;100.00
10071;BME280;5074;53.720;10.014;2022-09-23T01:56:45;101514.63;;;6.49;100.00
10071;BME280;5074;53.720;10.014;2022-09-23T01:59:17;101515.56;;;6.40;100.00
10071;BME280;5074;53.720;10.014;2022-09-23T02:01:53;101515.59;;;6.36;100.00
10071;BME280;5074;53.720;10.014;2022-09-23T02:04:25;101517.34;;;6.35;100.00
10071;BME280;5074;53.720;10.014;2022-09-23T02:06:58;101515.56;;;6.39;100.00
10071;BME280;5074;53.720;10.014;2022-09-23T02:09:30;101512.97;;;6.33;100.00
10071;BME280;5074;53.720;10.014;2022-09-23T02:12:04;101513.88;;;6.27;100.00
10071;BME280;5074;53.720;10.014;2022-09-23T02:14:43;101502.41;;;6.19;100.00
10071;BME280;5074;53.720;10.014;2022-09-23T02:17:16;101504.19;;;6.12;100.00
10071;BME280;5074;53.720;10.014;2022-09-23T02:19:53;101488.38;;;5.87;100.00
10071;BME280;5074;53.720;10.014;2022-09-23T02:22:26;101498.06;;;6.04;100.00
10071;BME280;5074;53.720;10.014;2022-09-23T02:24:56;101493.66;;;6.00;100.00
10071;BME280;5074;53.720;10.014;2022-09-23T02:27:29;101490.94;;;6.09;100.00
10071;BME280;5074;53.720;10.014;2022-09-23T02:30:04;101492.72;;;6.10;100.00
10071;BME280;5074;53.720;10.014;2022-09-23T02:32:44;101493.66;;;6.03;100.00
10071;BME280;5074;53.720;10.014;2022-09-23T02:35:19;101485.69;;;6.04;100.00
10071;BME280;5074;53.720;10.014;2022-09-23T02:37:57;101479.47;;;6.08;100.00
10071;BME280;5074;53.720;10.014;2022-09-23T02:40:32;101481.25;;;6.10;100.00
10071;BME280;5074;53.720;10.014;2022-09-23T02:43:07;101483.03;;;6.01;100.00
10071;BME280;5074;53.720;10.014;2022-09-23T02:45:37;101478.63;;;5.94;100.00
10071;BME280;5074;53.720;10.014;2022-09-23T02:48:11;101477.75;;;5.95;100.00
10071;BME280;5074;53.720;10.014;2022-09-23T02:50:40;101475.97;;;5.97;100.00
10071;BME280;5074;53.720;10.014;2022-09-23T02:53:08;101478.63;;;5.94;100.00
10071;BME280;5074;53.720;10.014;2022-09-23T02:55:36;101475.06;;;5.94;100.00
10071;BME280;5074;53.720;10.014;2022-09-23T02:58:04;101475.06;;;5.97;100.00
10071;BME280;5074;53.720;10.014;2022-09-23T03:00:53;101453.00;;;5.87;100.00
10071;BME280;5074;53.720;10.014;2022-09-23T03:03:36;101474.19;;;6.04;100.00
10071;BME280;5074;53.720;10.014;2022-09-23T03:06:14;101468.84;;;6.10;100.00
10071;BME280;5074;53.720;10.014;2022-09-23T03:08:52;101470.56;;;6.19;100.00
10071;BME280;5074;53.720;10.014;2022-09-23T03:11:23;101464.38;;;6.17;100.00
10071;BME280;5074;53.720;10.014;2022-09-23T03:14:01;101460.81;;;6.18;100.00
10071;BME280;5074;53.720;10.014;2022-09-23T03:16:38;101462.59;;;6.20;100.00
10071;BME280;5074;53.720;10.014;2022-09-23T03:19:17;101457.28;;;6.20;100.00
10071;BME280;5074;53.720;10.014;2022-09-23T03:21:52;101460.78;;;6.21;100.00
10071;BME280;5074;53.720;10.014;2022-09-23T03:24:28;101442.22;;;6.24;100.00
10071;BME280;5074;53.720;10.014;2022-09-23T03:26:59;101444.84;;;6.29;100.00
10071;BME280;5074;53.720;10.014;2022-09-23T03:29:29;101450.09;;;6.36;100.00
10071;BME280;5074;53.720;10.014;2022-09-23T03:32:03;101442.13;;;6.36;100.00
10071;BME280;5074;53.720;10.014;2022-09-23T03:34:35;101443.88;;;6.39;100.00
10071;BME280;5074;53.720;10.014;2022-09-23T03:37:09;101432.34;;;6.45;100.00
10071;BME280;5074;53.720;10.014;2022-09-23T03:39:43;101438.47;;;6.51;100.00
10071;BME280;5074;53.720;10.014;2022-09-23T03:42:16;101433.97;;;6.59;100.00
10071;BME280;5074;53.720;10.014;2022-09-23T03:44:46;101440.13;;;6.68;100.00
10071;BME280;5074;53.720;10.014;2022-09-23T03:47:15;101435.63;;;6.73;100.00
10071;BME280;5074;53.720;10.014;2022-09-23T03:49:47;101428.50;;;6.78;100.00
10071;BME280;5074;53.720;10.014;2022-09-23T03:52:15;101418.75;;;6.80;100.00
10071;BME280;5074;53.720;10.014;2022-09-23T03:54:43;101426.72;;;6.83;100.00
10071;BME280;5074;53.720;10.014;2022-09-23T03:57:12;101417.81;;;6.86;100.00
10071;BME280;5074;53.720;10.014;2022-09-23T03:59:40;101427.50;;;6.91;100.00
10071;BME280;5074;53.720;10.014;2022-09-23T04:02:09;101423.06;;;6.93;100.00
10071;BME280;5074;53.720;10.014;2022-09-23T04:04:37;101427.47;;;6.93;100.00
10071;BME280;5074;53.720;10.014;2022-09-23T04:07:08;101413.28;;;6.95;100.00
10071;BME280;5074;53.720;10.014;2022-09-23T04:09:37;101424.78;;;7.01;100.00
10071;BME280;5074;53.720;10.014;2022-09-23T04:12:05;101414.94;;;7.06;100.00
10071;BME280;5074;53.720;10.014;2022-09-23T04:14:33;101414.06;;;7.07;100.00
10071;BME280;5074;53.720;10.014;2022-09-23T04:17:02;101405.16;;;7.11;100.00
10071;BME280;5074;53.720;10.014;2022-09-23T04:19:30;101398.06;;;7.11;100.00
10071;BME280;5074;53.720;10.014;2022-09-23T04:21:58;101404.25;;;7.13;100.00
10071;BME280;5074;53.720;10.014;2022-09-23T04:24:27;101395.38;;;7.15;100.00
10071;BME280;5074;53.720;10.014;2022-09-23T04:26:55;101389.13;;;7.19;100.00
10071;BME280;5074;53.720;10.014;2022-09-23T04:29:24;101383.75;;;7.23;100.00
10071;BME280;5074;53.720;10.014;2022-09-23T04:31:53;101392.59;;;7.27;100.00
10071;BME280;5074;53.720;10.014;2022-09-23T04:34:21;101395.22;;;7.28;100.00
10071;BME280;5074;53.720;10.014;2022-09-23T04:36:49;101393.41;;;7.30;100.00
10071;BME280;5074;53.720;10.014;2022-09-23T04:39:17;101384.56;;;7.30;100.00
10071;BME280;5074;53.720;10.014;2022-09-23T04:41:46;101388.06;;;7.32;100.00
10071;BME280;5074;53.720;10.014;2022-09-23T04:44:15;101383.63;;;7.34;100.00
10071;BME280;5074;53.720;10.014;2022-09-23T04:46:43;101387.25;;;7.27;100.00
10071;BME280;5074;53.720;10.014;2022-09-23T04:49:13;101385.50;;;7.26;100.00
10071;BME280;5074;53.720;10.014;2022-09-23T04:51:41;101382.03;;;7.21;100.00
10071;BME280;5074;53.720;10.014;2022-09-23T04:54:10;101383.81;;;7.19;100.00
10071;BME280;5074;53.720;10.014;2022-09-23T04:56:40;101380.28;;;7.17;100.00
10071;BME280;5074;53.720;10.014;2022-09-23T04:59:09;101376.75;;;7.15;100.00
10071;BME280;5074;53.720;10.014;2022-09-23T05:01:37;101383.00;;;7.09;100.00
10071;BME280;5074;53.720;10.014;2022-09-23T05:04:08;101379.50;;;7.08;100.00
10071;BME280;5074;53.720;10.014;2022-09-23T05:06:39;101365.34;;;7.05;100.00
10071;BME280;5074;53.720;10.014;2022-09-23T05:09:13;101381.25;;;7.09;100.00
10071;BME280;5074;53.720;10.014;2022-09-23T05:11:41;101375.00;;;7.12;100.00
10071;BME280;5074;53.720;10.014;2022-09-23T05:14:11;101383.91;;;7.09;100.00
10071;BME280;5074;53.720;10.014;2022-09-23T05:16:39;101384.88;;;7.02;100.00
10071;BME280;5074;53.720;10.014;2022-09-23T05:19:07;101375.22;;;6.95;100.00
10071;BME280;5074;53.720;10.014;2022-09-23T05:21:35;101379.59;;;6.98;100.00
10071;BME280;5074;53.720;10.014;2022-09-23T05:24:04;101377.78;;;7.01;100.00
10071;BME280;5074;53.720;10.014;2022-09-23T05:26:32;101376.94;;;7.01;100.00
10071;BME280;5074;53.720;10.014;2022-09-23T05:29:00;101377.84;;;6.98;100.00
10071;BME280;5074;53.720;10.014;2022-09-23T05:31:29;101365.47;;;6.94;100.00
10071;BME280;5074;53.720;10.014;2022-09-23T05:34:00;101371.53;;;7.07;100.00
10071;BME280;5074;53.720;10.014;2022-09-23T05:36:30;101366.22;;;7.07;100.00
10071;BME280;5074;53.720;10.014;2022-09-23T05:39:05;101366.19;;;7.08;100.00
10071;BME280;5074;53.720;10.014;2022-09-23T05:41:33;101368.78;;;7.15;100.00
10071;BME280;5074;53.720;10.014;2022-09-23T05:44:02;101370.50;;;7.20;100.00
10071;BME280;5074;53.720;10.014;2022-09-23T05:46:32;101370.41;;;7.28;100.00
10071;BME280;5074;53.720;10.014;2022-09-23T05:49:01;101370.34;;;7.34;100.00
10071;BME280;5074;53.720;10.014;2022-09-23T05:51:31;101369.44;;;7.34;100.00
10071;BME280;5074;53.720;10.014;2022-09-23T05:54:00;101375.56;;;7.40;100.00
10071;BME280;5074;53.720;10.014;2022-09-23T05:56:30;101372.88;;;7.42;100.00
10071;BME280;5074;53.720;10.014;2022-09-23T05:59:00;101374.56;;;7.49;100.00
10071;BME280;5074;53.720;10.014;2022-09-23T06:01:30;101367.34;;;7.59;100.00
10071;BME280;5074;53.720;10.014;2022-09-23T06:04:02;101367.31;;;7.62;100.00
10071;BME280;5074;53.720;10.014;2022-09-23T06:06:32;101368.13;;;7.69;100.00
10071;BME280;5074;53.720;10.014;2022-09-23T06:09:01;101367.06;;;7.80;100.00
10071;BME280;5074;53.720;10.014;2022-09-23T06:11:30;101368.84;;;7.80;100.00
10071;BME280;5074;53.720;10.014;2022-09-23T06:13:59;101367.06;;;7.80;100.00
10071;BME280;5074;53.720;10.014;2022-09-23T06:16:29;101359.09;;;7.80;100.00
10071;BME280;5074;53.720;10.014;2022-09-23T06:18:58;101368.75;;;7.86;100.00
10071;BME280;5074;53.720;10.014;2022-09-23T06:21:36;101363.44;;;7.86;100.00
10071;BME280;5074;53.720;10.014;2022-09-23T06:24:06;101367.81;;;7.90;100.00
10071;BME280;5074;53.720;10.014;2022-09-23T06:26:35;101360.66;;;7.94;100.00
10071;BME280;5074;53.720;10.014;2022-09-23T06:29:08;101365.13;;;7.92;100.00
10071;BME280;5074;53.720;10.014;2022-09-23T06:31:37;101370.41;;;7.95;100.00
10071;BME280;5074;53.720;10.014;2022-09-23T06:34:08;101362.44;;;7.93;100.00
10071;BME280;5074;53.720;10.014;2022-09-23T06:36:40;101367.78;;;7.92;100.00
10071;BME280;5074;53.720;10.014;2022-09-23T06:39:12;101364.22;;;7.91;100.00
10071;BME280;5074;53.720;10.014;2022-09-23T06:41:41;101366.03;;;7.91;100.00
10071;BME280;5074;53.720;10.014;2022-09-23T06:44:09;101367.78;;;7.92;100.00
10071;BME280;5074;53.720;10.014;2022-09-23T06:46:37;101360.69;;;7.91;100.00
10071;BME280;5074;53.720;10.014;2022-09-23T06:49:05;101367.84;;;7.89;100.00
10071;BME280;5074;53.720;10.014;2022-09-23T06:51:33;101366.03;;;7.91;100.00
10071;BME280;5074;53.720;10.014;2022-09-23T06:54:02;101365.97;;;7.94;100.00
10071;BME280;5074;53.720;10.014;2022-09-23T06:56:30;101364.19;;;7.96;100.00
10071;BME280;5074;53.720;10.014;2022-09-23T06:59:05;101361.38;;;8.05;100.00
10071;BME280;5074;53.720;10.014;2022-09-23T07:01:34;101365.75;;;8.09;100.00
10071;BME280;5074;53.720;10.014;2022-09-23T07:04:02;101366.53;;;8.17;100.00
10071;BME280;5074;53.720;10.014;2022-09-23T07:06:30;101353.16;;;8.21;100.00
10071;BME280;5074;53.720;10.014;2022-09-23T07:08:58;101370.78;;;8.29;100.00
10071;BME280;5074;53.720;10.014;2022-09-23T07:11:28;101368.81;;;8.41;100.00
10071;BME280;5074;53.720;10.014;2022-09-23T07:13:56;101365.13;;;8.51;100.00
10071;BME280;5074;53.720;10.014;2022-09-23T07:16:24;101360.50;;;8.59;100.00
10071;BME280;5074;53.720;10.014;2022-09-23T07:18:53;101358.50;;;8.72;100.00
10071;BME280;5074;53.720;10.014;2022-09-23T07:21:21;101358.38;;;8.81;100.00
10071;BME280;5074;53.720;10.014;2022-09-23T07:23:49;101355.47;;;8.92;100.00
10071;BME280;5074;53.720;10.014;2022-09-23T07:26:18;101359.66;;;9.06;100.00
10071;BME280;5074;53.720;10.014;2022-09-23T07:28:52;101362.13;;;9.16;100.00
10071;BME280;5074;53.720;10.014;2022-09-23T07:31:21;101364.56;;;9.27;100.00
10071;BME280;5074;53.720;10.014;2022-09-23T07:34:05;101365.16;;;9.42;100.00
10071;BME280;5074;53.720;10.014;2022-09-23T07:36:33;101364.13;;;9.49;100.00
10071;BME280;5074;53.720;10.014;2022-09-23T07:39:03;101376.38;;;9.57;100.00
10071;BME280;5074;53.720;10.014;2022-09-23T07:41:33;101372.56;;;9.71;100.00
10071;BME280;5074;53.720;10.014;2022-09-23T07:44:02;101367.94;;;9.78;100.00
10071;BME280;5074;53.720;10.014;2022-09-23T07:46:33;101374.03;;;9.84;100.00
10071;BME280;5074;53.720;10.014;2022-09-23T07:49:02;101370.34;;;9.90;100.00
10071;BME280;5074;53.720;10.014;2022-09-23T07:51:32;101371.84;;;10.02;100.00
10071;BME280;5074;53.720;10.014;2022-09-23T07:54:03;101364.50;;;10.12;100.00
10071;BME280;5074;53.720;10.014;2022-09-23T07:56:34;101365.09;;;10.24;100.00
10071;BME280;5074;53.720;10.014;2022-09-23T07:59:04;101364.97;;;10.29;100.00
10071;BME280;5074;53.720;10.014;2022-09-23T08:01:36;101371.91;;;10.38;100.00
10071;BME280;5074;53.720;10.014;2022-09-23T08:04:06;101362.84;;;10.45;100.00
10071;BME280;5074;53.720;10.014;2022-09-23T08:06:39;101370.59;;;10.56;100.00
10071;BME280;5074;53.720;10.014;2022-09-23T08:09:08;101365.09;;;10.62;100.00
10071;BME280;5074;53.720;10.014;2022-09-23T08:11:36;101367.59;;;10.68;100.00
10071;BME280;5074;53.720;10.014;2022-09-23T08:14:06;101359.47;;;10.71;100.00
10071;BME280;5074;53.720;10.014;2022-09-23T08:16:34;101367.16;;;10.85;100.00
10071;BME280;5074;53.720;10.014;2022-09-23T08:19:02;101364.34;;;10.90;100.00
10071;BME280;5074;53.720;10.014;2022-09-23T08:21:36;101348.28;;;10.90;100.00
10071;BME280;5074;53.720;10.014;2022-09-23T08:24:05;101363.97;;;11.04;100.00
10071;BME280;5074;53.720;10.014;2022-09-23T08:26:34;101359.53;;;11.03;100.00
10071;BME280;5074;53.720;10.014;2022-09-23T08:29:02;101359.41;;;11.07;100.00
10071;BME280;5074;53.720;10.014;2022-09-23T08:31:32;101356.78;;;11.06;100.00
10071;BME280;5074;53.720;10.014;2022-09-23T08:34:01;101354.91;;;11.09;100.00
10071;BME280;5074;53.720;10.014;2022-09-23T08:36:30;101357.50;;;11.12;100.00
10071;BME280;5074;53.720;10.014;2022-09-23T08:38:58;101354.72;;;11.16;100.00
10071;BME280;5074;53.720;10.014;2022-09-23T08:41:33;101347.41;;;11.22;100.00
10071;BME280;5074;53.720;10.014;2022-09-23T08:44:09;101349.75;;;11.33;100.00
10071;BME280;5074;53.720;10.014;2022-09-23T08:46:43;101327.59;;;11.28;100.00
10071;BME280;5074;53.720;10.014;2022-09-23T08:49:21;101346.59;;;11.50;100.00
10071;BME280;5074;53.720;10.014;2022-09-23T08:51:51;101345.28;;;11.63;100.00
10071;BME280;5074;53.720;10.014;2022-09-23T08:54:22;101345.91;;;11.73;100.00
10071;BME280;5074;53.720;10.014;2022-09-23T08:56:55;101343.81;;;11.83;100.00
10071;BME280;5074;53.720;10.014;2022-09-23T08:59:28;101338.31;;;11.88;100.00
10071;BME280;5074;53.720;10.014;2022-09-23T09:02:11;101342.31;;;12.03;100.00
10071;BME280;5074;53.720;10.014;2022-09-23T09:04:43;101330.31;;;12.14;100.00
10071;BME280;5074;53.720;10.014;2022-09-23T09:07:14;101328.91;;;12.31;100.00
10071;BME280;5074;53.720;10.014;2022-09-23T09:10:10;101326.75;;;12.42;100.00
10071;BME280;5074;53.720;10.014;2022-09-23T09:12:44;101323.50;;;12.58;100.00
10071;BME280;5074;53.720;10.014;2022-09-23T09:15:14;101323.16;;;12.68;100.00
10071;BME280;5074;53.720;10.014;2022-09-23T09:17:49;101320.00;;;12.81;100.00
10071;BME280;5074;53.720;10.014;2022-09-23T09:20:31;101316.91;;;12.93;100.00
10071;BME280;5074;53.720;10.014;2022-09-23T09:23:15;101319.25;;;13.02;100.00
10071;BME280;5074;53.720;10.014;2022-09-23T09:25:47;101313.00;;;13.02;100.00
10071;BME280;5074;53.720;10.014;2022-09-23T09:28:19;101315.25;;;13.14;100.00
10071;BME280;5074;53.720;10.014;2022-09-23T09:30:52;101310.81;;;13.13;100.00
10071;BME280;5074;53.720;10.014;2022-09-23T09:33:27;101304.44;;;13.16;100.00
10071;BME280;5074;53.720;10.014;2022-09-23T09:36:11;101301.91;;;13.11;100.00
10071;BME280;5074;53.720;10.014;2022-09-23T09:38:41;101305.38;;;13.15;100.00
10071;BME280;5074;53.720;10.014;2022-09-23T09:41:12;101307.88;;;13.19;100.00
10071;BME280;5074;53.720;10.014;2022-09-23T09:43:43;101305.03;;;13.24;100.00
10071;BME280;5074;53.720;10.014;2022-09-23T09:46:25;101297.50;;;13.34;100.00
10071;BME280;5074;53.720;10.014;2022-09-23T09:49:07;101298.19;;;13.41;100.00
10071;BME280;5074;53.720;10.014;2022-09-23T09:51:36;101294.19;;;13.51;100.00
10071;BME280;5074;53.720;10.014;2022-09-23T09:54:19;101291.06;;;13.62;100.00
10071;BME280;5074;53.720;10.014;2022-09-23T09:56:49;101288.91;;;13.71;100.00
10071;BME280;5074;53.720;10.014;2022-09-23T09:59:24;101286.09;;;13.75;98.65
10071;BME280;5074;53.720;10.014;2022-09-23T10:02:11;101285.22;;;13.74;100.00
10071;BME280;5074;53.720;10.014;2022-09-23T10:04:41;101278.97;;;13.73;100.00
10071;BME280;5074;53.720;10.014;2022-09-23T10:07:12;101280.84;;;13.71;100.00
10071;BME280;5074;53.720;10.014;2022-09-23T10:09:48;101283.59;;;13.70;100.00
10071;BME280;5074;53.720;10.014;2022-09-23T10:12:18;101272.00;;;13.69;100.00
10071;BME280;5074;53.720;10.014;2022-09-23T10:14:47;101273.59;;;13.73;100.00
10071;BME280;5074;53.720;10.014;2022-09-23T10:17:19;101262.34;;;13.86;100.00
10071;BME280;5074;53.720;10.014;2022-09-23T10:19:53;101259.97;;;14.00;100.00
10071;BME280;5074;53.720;10.014;2022-09-23T10:22:30;101268.06;;;14.21;100.00
10071;BME280;5074;53.720;10.014;2022-09-23T10:25:02;101260.91;;;14.42;100.00
10071;BME280;5074;53.720;10.014;2022-09-23T10:27:35;101264.44;;;14.65;96.22
10071;BME280;5074;53.720;10.014;2022-09-23T10:30:18;101264.88;;;14.74;94.46
10071;BME280;5074;53.720;10.014;2022-09-23T10:32:48;101260.72;;;15.07;100.00
10071;BME280;5074;53.720;10.014;2022-09-23T10:35:19;101260.03;;;15.22;97.84
10071;BME280;5074;53.720;10.014;2022-09-23T10:37:49;101265.81;;;15.51;91.04
10071;BME280;5074;53.720;10.014;2022-09-23T10:40:23;101261.31;;;15.52;83.01
10071;BME280;5074;53.720;10.014;2022-09-23T10:43:21;101261.22;;;15.72;82.79
10071;BME280;5074;53.720;10.014;2022-09-23T10:46:15;101264.44;;;15.80;81.13
10071;BME280;5074;53.720;10.014;2022-09-23T10:49:29;101257.50;;;15.94;79.85
10071;BME280;5074;53.720;10.014;2022-09-23T10:52:14;101252.59;;;16.02;82.59
10071;BME280;5074;53.720;10.014;2022-09-23T10:54:55;101250.91;;;16.00;79.94
10071;BME280;5074;53.720;10.014;2022-09-23T10:57:37;101247.91;;;16.06;79.59
10071;BME280;5074;53.720;10.014;2022-09-23T11:00:14;101240.06;;;16.01;81.20
10071;BME280;5074;53.720;10.014;2022-09-23T11:03:00;101245.28;;;16.04;79.54
10071;BME280;5074;53.720;10.014;2022-09-23T11:05:37;101248.47;;;16.12;79.01
10071;BME280;5074;53.720;10.014;2022-09-23T11:08:25;101237.53;;;16.15;77.96
10071;BME280;5074;53.720;10.014;2022-09-23T11:11:10;101226.25;;;16.25;78.75
10071;BME280;5074;53.720;10.014;2022-09-23T11:14:00;101237.03;;;16.25;80.63
10071;BME280;5074;53.720;10.014;2022-09-23T11:16:41;101230.97;;;16.21;79.67
10071;BME280;5074;53.720;10.014;2022-09-23T11:19:22;101225.47;;;16.23;84.53
10071;BME280;5074;53.720;10.014;2022-09-23T11:22:02;101224.22;;;16.30;88.09
10071;BME280;5074;53.720;10.014;2022-09-23T11:24:45;101220.66;;;16.29;87.19
10071;BME280;5074;53.720;10.014;2022-09-23T11:27:28;101230.88;;;16.23;87.77
10071;BME280;5074;53.720;10.014;2022-09-23T11:30:04;101208.66;;;16.18;86.51
10071;BME280;5074;53.720;10.014;2022-09-23T11:32:55;101217.06;;;16.11;84.88
10071;BME280;5074;53.720;10.014;2022-09-23T11:35:38;101205.34;;;16.12;82.85
10071;BME280;5074;53.720;10.014;2022-09-23T11:38:14;101200.09;;;16.09;85.58
10071;BME280;5074;53.720;10.014;2022-09-23T11:40:48;101208.28;;;16.08;86.62
10071;BME280;5074;53.720;10.014;2022-09-23T11:43:22;101204.41;;;16.13;84.38
10071;BME280;5074;53.720;10.014;2022-09-23T11:45:55;101190.19;;;16.10;85.09
10071;BME280;5074;53.720;10.014;2022-09-23T11:48:30;101195.41;;;16.13;84.34
10071;BME280;5074;53.720;10.014;2022-09-23T11:51:03;101191.13;;;16.09;81.17
10071;BME280;5074;53.720;10.014;2022-09-23T11:53:38;101189.25;;;16.11;81.77
10071;BME280;5074;53.720;10.014;2022-09-23T11:56:13;101194.38;;;16.15;83.86
10071;BME280;5074;53.720;10.014;2022-09-23T11:59:05;101193.84;;;16.26;80.19
10071;BME280;5074;53.720;10.014;2022-09-23T12:01:41;101186.44;;;16.30;82.23
10071;BME280;5074;53.720;10.014;2022-09-23T12:04:18;101191.34;;;16.39;77.63
10071;BME280;5074;53.720;10.014;2022-09-23T12:06:54;101182.63;;;16.52;76.47
10071;BME280;5074;53.720;10.014;2022-09-23T12:09:34;101185.19;;;16.71;76.79
10071;BME280;5074;53.720;10.014;2022-09-23T12:12:30;101182.75;;;16.99;77.00
10071;BME280;5074;53.720;10.014;2022-09-23T12:15:05;101179.78;;;17.20;77.00
10071;BME280;5074;53.720;10.014;2022-09-23T12:17:54;101174.81;;;17.44;76.36
10071;BME280;5074;53.720;10.014;2022-09-23T12:20:40;101170.97;;;17.64;73.77
10071;BME280;5074;53.720;10.014;2022-09-23T12:23:24;101171.63;;;17.84;73.35
10071;BME280;5074;53.720;10.014;2022-09-23T12:25:56;101165.91;;;18.04;72.74
10071;BME280;5074;53.720;10.014;2022-09-23T12:28:29;101165.28;;;18.30;70.62
10071;BME280;5074;53.720;10.014;2022-09-23T12:31:01;101164.91;;;18.21;64.02
10071;BME280;5074;53.720;10.014;2022-09-23T12:33:32;101164.03;;;18.35;63.05
10071;BME280;5074;53.720;10.014;2022-09-23T12:36:04;101156.72;;;18.52;65.71
10071;BME280;5074;53.720;10.014;2022-09-23T12:38:35;101156.53;;;18.84;65.97
10071;BME280;5074;53.720;10.014;2022-09-23T12:41:18;101155.09;;;18.92;64.80
10071;BME280;5074;53.720;10.014;2022-09-23T12:43:53;101148.56;;;19.24;61.98
10071;BME280;5074;53.720;10.014;2022-09-23T12:46:22;101158.09;;;19.30;58.02
10071;BME280;5074;53.720;10.014;2022-09-23T12:49:00;101148.72;;;19.21;57.79
10071;BME280;5074;53.720;10.014;2022-09-23T12:51:30;101147.94;;;19.33;57.46
10071;BME280;5074;53.720;10.014;2022-09-23T12:54:21;101142.88;;;19.14;54.20
10071;BME280;5074;53.720;10.014;2022-09-23T12:56:58;101148.00;;;19.04;54.99
10071;BME280;5074;53.720;10.014;2022-09-23T12:59:30;101139.78;;;18.77;55.08
10071;BME280;5074;53.720;10.014;2022-09-23T13:02:22;101138.13;;;18.31;55.47
10071;BME280;5074;53.720;10.014;2022-09-23T13:04:56;101140.75;;;18.47;52.61
10071;BME280;5074;53.720;10.014;2022-09-23T13:07:45;101138.03;;;18.33;52.32
10071;BME280;5074;53.720;10.014;2022-09-23T13:10:17;101135.81;;;18.25;53.77
10071;BME280;5074;53.720;10.014;2022-09-23T13:12:50;101133.59;;;18.32;54.35
10071;BME280;5074;53.720;10.014;2022-09-23T13:15:30;101128.19;;;18.32;53.93
10071;BME280;5074;53.720;10.014;2022-09-23T13:21:16;101108.75;;;18.39;53.00
10071;BME280;5074;53.720;10.014;2022-09-23T13:24:16;101113.78;;;18.46;53.62